KNGP/NGP METAR and TAF weather

Enter ICAO airport designator
Station Type Date Time Source
KNGP METAR 2021/05/14 03:56 UTC NOAA

KNGP 140356Z 10012KT 10SM FEW025 SCT034 BKN045 24/18 A3019 RMK AO2 SLP221 T02390183


Station Type Date Time Source
KNGP Decoded METAR 2021/05/14 03:56 UTC NOAA

CORPUS CHRISTI NAVAL AIR STN, TX, United States (KNGP) 27-41N 097-17W
May 13, 2021 - 11:56 PM EDT / 2021.05.14 0356 UTC
Wind: from the E (100 degrees) at 14 MPH (12 KT):0
Visibility: 10 mile(s):0
Sky conditions: mostly cloudy
Temperature: 75.0 F (23.9 C)
Dew Point: 64.9 F (18.3 C)
Relative Humidity: 70%
Pressure (altimeter): 30.19 in. Hg (1022 hPa)
ob: KNGP 140356Z 10012KT 10SM FEW025 SCT034 BKN045 24/18 A3019 RMK AO2 SLP221 T02390183
cycle: 4

Station Type Date Time Source
KNGP TAF 2021/05/13 23:54 UTC NOAA

TAF TAF KNGP 1323/1423 09010KT 9999 BKN025 OVC035 QNH3010INS
FM140300 09010KT 8000 BR BKN015 BKN035 QNH3008INS
FM141100 VRB06KT 9000 BR SCT010 BKN015 BKN035 QNH3010INS
BECMG 1415/1417 09012KT 9999 NSW SCT020 BKN030 BKN060 QNH3007INS
TEMPO 1420/1423 10012G18KT 9000 -SHRA VCTS SCT025 BKN040CB AUTOMATED SENSOR METWATCH 1404 TIL 1411 T20/1412Z T27/1420Z FN20085

Example: see airport list